sensor_id;sensor_type;location;lat;lon;timestamp;P1;durP1;ratioP1;P2;durP2;ratioP2
2035;SDS011;23642;42.658;23.350;2023-02-15T00:01:59;125.03;;;114.80;;
2035;SDS011;23642;42.658;23.350;2023-02-15T00:04:26;124.30;;;113.68;;
2035;SDS011;23642;42.658;23.350;2023-02-15T00:07:13;121.78;;;111.80;;
2035;SDS011;23642;42.658;23.350;2023-02-15T00:09:41;125.68;;;115.13;;
2035;SDS011;23642;42.658;23.350;2023-02-15T00:12:08;122.68;;;111.97;;
2035;SDS011;23642;42.658;23.350;2023-02-15T00:14:35;121.13;;;110.75;;
2035;SDS011;23642;42.658;23.350;2023-02-15T00:17:04;119.32;;;109.20;;
2035;SDS011;23642;42.658;23.350;2023-02-15T00:19:31;122.63;;;111.85;;
2035;SDS011;23642;42.658;23.350;2023-02-15T00:21:58;118.80;;;109.03;;
2035;SDS011;23642;42.658;23.350;2023-02-15T00:24:26;122.97;;;112.28;;
2035;SDS011;23642;42.658;23.350;2023-02-15T00:26:53;115.10;;;105.43;;
2035;SDS011;23642;42.658;23.350;2023-02-15T00:29:20;116.43;;;106.80;;
2035;SDS011;23642;42.658;23.350;2023-02-15T00:31:47;121.90;;;111.55;;
2035;SDS011;23642;42.658;23.350;2023-02-15T00:34:15;119.25;;;109.28;;
2035;SDS011;23642;42.658;23.350;2023-02-15T00:36:43;118.70;;;108.65;;
2035;SDS011;23642;42.658;23.350;2023-02-15T00:39:10;122.45;;;111.78;;
2035;SDS011;23642;42.658;23.350;2023-02-15T00:41:39;118.95;;;108.47;;
2035;SDS011;23642;42.658;23.350;2023-02-15T00:44:06;121.38;;;111.38;;
2035;SDS011;23642;42.658;23.350;2023-02-15T00:46:33;121.97;;;111.82;;
2035;SDS011;23642;42.658;23.350;2023-02-15T00:49:00;118.50;;;108.75;;
2035;SDS011;23642;42.658;23.350;2023-02-15T00:51:27;118.00;;;107.75;;
2035;SDS011;23642;42.658;23.350;2023-02-15T00:53:55;118.63;;;108.95;;
2035;SDS011;23642;42.658;23.350;2023-02-15T00:56:21;119.22;;;109.53;;
2035;SDS011;23642;42.658;23.350;2023-02-15T00:58:49;119.97;;;110.13;;
2035;SDS011;23642;42.658;23.350;2023-02-15T01:01:17;120.32;;;110.40;;
2035;SDS011;23642;42.658;23.350;2023-02-15T01:03:45;117.82;;;108.05;;
2035;SDS011;23642;42.658;23.350;2023-02-15T01:06:13;119.18;;;109.22;;
2035;SDS011;23642;42.658;23.350;2023-02-15T01:08:40;117.35;;;107.68;;
2035;SDS011;23642;42.658;23.350;2023-02-15T01:11:08;116.90;;;107.38;;
2035;SDS011;23642;42.658;23.350;2023-02-15T01:13:36;118.35;;;108.47;;
2035;SDS011;23642;42.658;23.350;2023-02-15T01:16:04;115.65;;;106.53;;
2035;SDS011;23642;42.658;23.350;2023-02-15T01:18:32;119.95;;;110.35;;
2035;SDS011;23642;42.658;23.350;2023-02-15T01:20:59;116.47;;;106.97;;
2035;SDS011;23642;42.658;23.350;2023-02-15T01:23:26;120.47;;;110.55;;
2035;SDS011;23642;42.658;23.350;2023-02-15T01:25:52;117.43;;;107.60;;
2035;SDS011;23642;42.658;23.350;2023-02-15T01:28:19;115.75;;;106.35;;
2035;SDS011;23642;42.658;23.350;2023-02-15T01:30:46;115.00;;;105.30;;
2035;SDS011;23642;42.658;23.350;2023-02-15T01:33:14;117.50;;;107.80;;
2035;SDS011;23642;42.658;23.350;2023-02-15T01:35:43;121.07;;;111.07;;
2035;SDS011;23642;42.658;23.350;2023-02-15T01:38:11;114.43;;;105.15;;
2035;SDS011;23642;42.658;23.350;2023-02-15T01:40:38;115.25;;;106.13;;
2035;SDS011;23642;42.658;23.350;2023-02-15T01:43:07;119.10;;;109.65;;
2035;SDS011;23642;42.658;23.350;2023-02-15T01:45:37;116.70;;;107.00;;
2035;SDS011;23642;42.658;23.350;2023-02-15T01:48:05;110.68;;;101.55;;
2035;SDS011;23642;42.658;23.350;2023-02-15T01:50:40;115.30;;;105.65;;
2035;SDS011;23642;42.658;23.350;2023-02-15T01:53:12;116.90;;;106.80;;
2035;SDS011;23642;42.658;23.350;2023-02-15T01:55:43;114.28;;;104.78;;
2035;SDS011;23642;42.658;23.350;2023-02-15T01:58:13;115.72;;;106.30;;
2035;SDS011;23642;42.658;23.350;2023-02-15T02:00:40;112.28;;;102.78;;
2035;SDS011;23642;42.658;23.350;2023-02-15T02:03:08;115.20;;;105.97;;
2035;SDS011;23642;42.658;23.350;2023-02-15T02:05:35;115.10;;;105.30;;
2035;SDS011;23642;42.658;23.350;2023-02-15T02:08:04;115.80;;;105.75;;
2035;SDS011;23642;42.658;23.350;2023-02-15T02:10:32;116.43;;;106.88;;
2035;SDS011;23642;42.658;23.350;2023-02-15T02:12:59;113.90;;;104.65;;
2035;SDS011;23642;42.658;23.350;2023-02-15T02:15:30;112.18;;;102.95;;
2035;SDS011;23642;42.658;23.350;2023-02-15T02:18:21;113.38;;;103.70;;
2035;SDS011;23642;42.658;23.350;2023-02-15T02:24:13;112.75;;;103.47;;
2035;SDS011;23642;42.658;23.350;2023-02-15T02:27:05;114.32;;;104.93;;
2035;SDS011;23642;42.658;23.350;2023-02-15T02:29:55;113.30;;;103.90;;
2035;SDS011;23642;42.658;23.350;2023-02-15T02:33:12;113.22;;;103.88;;
2035;SDS011;23642;42.658;23.350;2023-02-15T02:35:48;116.50;;;106.75;;
2035;SDS011;23642;42.658;23.350;2023-02-15T02:38:25;113.32;;;103.72;;
2035;SDS011;23642;42.658;23.350;2023-02-15T02:40:59;115.72;;;106.25;;
2035;SDS011;23642;42.658;23.350;2023-02-15T02:43:35;116.65;;;106.78;;
2035;SDS011;23642;42.658;23.350;2023-02-15T02:46:09;114.70;;;105.28;;
2035;SDS011;23642;42.658;23.350;2023-02-15T02:48:44;115.15;;;105.38;;
2035;SDS011;23642;42.658;23.350;2023-02-15T02:51:11;113.78;;;104.68;;
2035;SDS011;23642;42.658;23.350;2023-02-15T02:53:39;111.53;;;102.57;;
2035;SDS011;23642;42.658;23.350;2023-02-15T02:56:08;115.68;;;106.10;;
2035;SDS011;23642;42.658;23.350;2023-02-15T02:58:44;116.90;;;107.50;;
2035;SDS011;23642;42.658;23.350;2023-02-15T03:01:15;110.95;;;101.95;;
2035;SDS011;23642;42.658;23.350;2023-02-15T03:03:50;114.00;;;104.65;;
2035;SDS011;23642;42.658;23.350;2023-02-15T03:06:22;113.97;;;104.60;;
2035;SDS011;23642;42.658;23.350;2023-02-15T03:08:54;114.15;;;105.05;;
2035;SDS011;23642;42.658;23.350;2023-02-15T03:11:24;114.18;;;105.13;;
2035;SDS011;23642;42.658;23.350;2023-02-15T03:13:51;118.43;;;108.20;;
2035;SDS011;23642;42.658;23.350;2023-02-15T03:16:18;114.70;;;105.82;;
2035;SDS011;23642;42.658;23.350;2023-02-15T03:18:55;114.80;;;105.97;;
2035;SDS011;23642;42.658;23.350;2023-02-15T03:21:31;115.13;;;105.53;;
2035;SDS011;23642;42.658;23.350;2023-02-15T03:24:10;117.53;;;107.90;;
2035;SDS011;23642;42.658;23.350;2023-02-15T03:26:41;116.97;;;107.57;;
2035;SDS011;23642;42.658;23.350;2023-02-15T03:29:11;114.97;;;105.87;;
2035;SDS011;23642;42.658;23.350;2023-02-15T03:31:42;117.40;;;108.10;;
2035;SDS011;23642;42.658;23.350;2023-02-15T03:34:14;116.47;;;107.57;;
2035;SDS011;23642;42.658;23.350;2023-02-15T03:36:44;119.20;;;109.63;;
2035;SDS011;23642;42.658;23.350;2023-02-15T03:39:16;118.72;;;109.43;;
2035;SDS011;23642;42.658;23.350;2023-02-15T03:41:48;115.88;;;106.55;;
2035;SDS011;23642;42.658;23.350;2023-02-15T03:44:23;116.72;;;107.82;;
2035;SDS011;23642;42.658;23.350;2023-02-15T03:46:56;116.60;;;107.50;;
2035;SDS011;23642;42.658;23.350;2023-02-15T03:49:34;117.38;;;107.85;;
2035;SDS011;23642;42.658;23.350;2023-02-15T03:52:11;113.88;;;105.10;;
2035;SDS011;23642;42.658;23.350;2023-02-15T03:54:41;116.35;;;107.30;;
2035;SDS011;23642;42.658;23.350;2023-02-15T03:57:12;114.43;;;105.67;;
2035;SDS011;23642;42.658;23.350;2023-02-15T03:59:58;115.47;;;106.30;;
2035;SDS011;23642;42.658;23.350;2023-02-15T04:02:45;115.65;;;106.47;;
2035;SDS011;23642;42.658;23.350;2023-02-15T04:05:23;115.68;;;106.80;;
2035;SDS011;23642;42.658;23.350;2023-02-15T04:07:49;116.43;;;107.30;;
2035;SDS011;23642;42.658;23.350;2023-02-15T04:10:16;119.75;;;110.18;;
2035;SDS011;23642;42.658;23.350;2023-02-15T04:13:01;115.25;;;106.30;;
2035;SDS011;23642;42.658;23.350;2023-02-15T04:15:27;114.60;;;105.72;;
2035;SDS011;23642;42.658;23.350;2023-02-15T04:18:12;121.10;;;111.65;;
2035;SDS011;23642;42.658;23.350;2023-02-15T04:20:44;117.78;;;108.28;;
2035;SDS011;23642;42.658;23.350;2023-02-15T04:23:28;117.50;;;108.45;;
2035;SDS011;23642;42.658;23.350;2023-02-15T04:26:12;119.85;;;110.60;;
2035;SDS011;23642;42.658;23.350;2023-02-15T04:28:39;115.93;;;106.93;;
2035;SDS011;23642;42.658;23.350;2023-02-15T04:31:05;117.75;;;108.47;;
2035;SDS011;23642;42.658;23.350;2023-02-15T04:33:32;121.53;;;111.78;;
2035;SDS011;23642;42.658;23.350;2023-02-15T04:36:02;119.07;;;109.68;;
2035;SDS011;23642;42.658;23.350;2023-02-15T04:38:29;119.50;;;110.10;;
2035;SDS011;23642;42.658;23.350;2023-02-15T04:40:56;121.37;;;111.77;;
2035;SDS011;23642;42.658;23.350;2023-02-15T04:43:22;117.35;;;108.25;;
2035;SDS011;23642;42.658;23.350;2023-02-15T04:45:49;116.23;;;107.40;;
2035;SDS011;23642;42.658;23.350;2023-02-15T04:48:17;120.05;;;110.40;;
2035;SDS011;23642;42.658;23.350;2023-02-15T04:50:44;113.30;;;104.63;;
2035;SDS011;23642;42.658;23.350;2023-02-15T04:53:12;123.80;;;113.47;;
2035;SDS011;23642;42.658;23.350;2023-02-15T04:55:41;120.32;;;110.53;;
2035;SDS011;23642;42.658;23.350;2023-02-15T04:58:08;120.43;;;110.75;;
2035;SDS011;23642;42.658;23.350;2023-02-15T05:00:34;119.50;;;110.03;;
2035;SDS011;23642;42.658;23.350;2023-02-15T05:03:01;115.80;;;106.78;;
2035;SDS011;23642;42.658;23.350;2023-02-15T05:05:28;121.07;;;111.60;;
2035;SDS011;23642;42.658;23.350;2023-02-15T05:07:55;119.77;;;110.53;;
2035;SDS011;23642;42.658;23.350;2023-02-15T05:10:23;120.78;;;110.82;;
2035;SDS011;23642;42.658;23.350;2023-02-15T05:12:49;120.50;;;111.10;;
2035;SDS011;23642;42.658;23.350;2023-02-15T05:15:16;116.47;;;107.22;;
2035;SDS011;23642;42.658;23.350;2023-02-15T05:17:43;120.93;;;111.65;;
2035;SDS011;23642;42.658;23.350;2023-02-15T05:20:10;120.43;;;111.07;;
2035;SDS011;23642;42.658;23.350;2023-02-15T05:22:37;118.15;;;109.20;;
2035;SDS011;23642;42.658;23.350;2023-02-15T05:25:03;123.78;;;114.35;;
2035;SDS011;23642;42.658;23.350;2023-02-15T05:27:49;123.00;;;113.35;;
2035;SDS011;23642;42.658;23.350;2023-02-15T05:30:33;120.53;;;110.63;;
2035;SDS011;23642;42.658;23.350;2023-02-15T05:32:59;121.68;;;111.88;;
2035;SDS011;23642;42.658;23.350;2023-02-15T05:35:28;120.13;;;110.70;;
2035;SDS011;23642;42.658;23.350;2023-02-15T05:37:55;124.93;;;114.72;;
2035;SDS011;23642;42.658;23.350;2023-02-15T05:40:21;122.72;;;113.30;;
2035;SDS011;23642;42.658;23.350;2023-02-15T05:42:52;120.60;;;110.95;;
2035;SDS011;23642;42.658;23.350;2023-02-15T05:45:19;118.80;;;109.17;;
2035;SDS011;23642;42.658;23.350;2023-02-15T05:47:45;121.37;;;111.93;;
2035;SDS011;23642;42.658;23.350;2023-02-15T05:50:12;120.13;;;110.55;;
2035;SDS011;23642;42.658;23.350;2023-02-15T05:52:39;122.50;;;112.50;;
2035;SDS011;23642;42.658;23.350;2023-02-15T05:55:05;121.43;;;111.80;;
2035;SDS011;23642;42.658;23.350;2023-02-15T05:57:33;122.38;;;112.78;;
2035;SDS011;23642;42.658;23.350;2023-02-15T06:00:02;122.65;;;113.32;;
2035;SDS011;23642;42.658;23.350;2023-02-15T06:02:29;122.30;;;112.93;;
2035;SDS011;23642;42.658;23.350;2023-02-15T06:04:57;123.97;;;114.10;;
2035;SDS011;23642;42.658;23.350;2023-02-15T06:07:24;124.60;;;115.00;;
2035;SDS011;23642;42.658;23.350;2023-02-15T06:09:50;124.10;;;114.30;;
2035;SDS011;23642;42.658;23.350;2023-02-15T06:12:17;119.23;;;110.13;;
2035;SDS011;23642;42.658;23.350;2023-02-15T06:14:44;120.87;;;111.53;;
2035;SDS011;23642;42.658;23.350;2023-02-15T06:17:12;126.30;;;116.80;;
2035;SDS011;23642;42.658;23.350;2023-02-15T06:19:39;121.30;;;111.80;;
2035;SDS011;23642;42.658;23.350;2023-02-15T06:22:07;122.03;;;112.63;;
2035;SDS011;23642;42.658;23.350;2023-02-15T06:24:34;121.63;;;112.50;;
2035;SDS011;23642;42.658;23.350;2023-02-15T06:27:01;123.97;;;114.47;;
2035;SDS011;23642;42.658;23.350;2023-02-15T06:29:27;123.28;;;114.05;;
2035;SDS011;23642;42.658;23.350;2023-02-15T06:31:54;124.43;;;114.53;;
2035;SDS011;23642;42.658;23.350;2023-02-15T06:34:22;124.17;;;114.90;;
2035;SDS011;23642;42.658;23.350;2023-02-15T06:36:50;126.00;;;116.00;;
2035;SDS011;23642;42.658;23.350;2023-02-15T06:39:17;128.50;;;118.53;;
2035;SDS011;23642;42.658;23.350;2023-02-15T06:41:44;124.27;;;114.60;;
2035;SDS011;23642;42.658;23.350;2023-02-15T06:44:10;123.30;;;114.10;;
2035;SDS011;23642;42.658;23.350;2023-02-15T06:46:37;121.00;;;111.17;;
2035;SDS011;23642;42.658;23.350;2023-02-15T06:49:04;122.07;;;112.87;;
2035;SDS011;23642;42.658;23.350;2023-02-15T06:51:32;120.57;;;111.30;;
2035;SDS011;23642;42.658;23.350;2023-02-15T06:53:59;121.77;;;112.50;;
2035;SDS011;23642;42.658;23.350;2023-02-15T06:56:26;125.30;;;115.80;;
2035;SDS011;23642;42.658;23.350;2023-02-15T06:58:53;120.13;;;111.23;;
2035;SDS011;23642;42.658;23.350;2023-02-15T07:01:19;123.47;;;114.00;;
2035;SDS011;23642;42.658;23.350;2023-02-15T07:03:46;123.60;;;114.23;;
2035;SDS011;23642;42.658;23.350;2023-02-15T07:06:13;121.50;;;112.30;;
2035;SDS011;23642;42.658;23.350;2023-02-15T07:08:41;119.80;;;110.73;;
2035;SDS011;23642;42.658;23.350;2023-02-15T07:11:07;121.90;;;112.80;;
2035;SDS011;23642;42.658;23.350;2023-02-15T07:13:54;121.33;;;112.63;;
2035;SDS011;23642;42.658;23.350;2023-02-15T07:16:21;121.33;;;112.37;;
2035;SDS011;23642;42.658;23.350;2023-02-15T07:18:48;116.30;;;107.70;;
2035;SDS011;23642;42.658;23.350;2023-02-15T07:21:15;120.27;;;111.07;;
2035;SDS011;23642;42.658;23.350;2023-02-15T07:23:43;122.10;;;112.70;;
2035;SDS011;23642;42.658;23.350;2023-02-15T07:26:10;121.17;;;112.17;;
2035;SDS011;23642;42.658;23.350;2023-02-15T07:28:37;122.37;;;113.07;;
2035;SDS011;23642;42.658;23.350;2023-02-15T07:31:06;121.20;;;112.10;;
2035;SDS011;23642;42.658;23.350;2023-02-15T07:33:32;122.80;;;113.70;;
2035;SDS011;23642;42.658;23.350;2023-02-15T07:36:02;117.97;;;109.37;;
2035;SDS011;23642;42.658;23.350;2023-02-15T07:38:30;123.00;;;113.70;;
2035;SDS011;23642;42.658;23.350;2023-02-15T07:41:01;119.97;;;111.37;;
2035;SDS011;23642;42.658;23.350;2023-02-15T07:43:29;120.80;;;111.70;;
2035;SDS011;23642;42.658;23.350;2023-02-15T07:45:58;122.17;;;113.37;;
2035;SDS011;23642;42.658;23.350;2023-02-15T07:48:25;120.20;;;111.37;;
2035;SDS011;23642;42.658;23.350;2023-02-15T07:50:52;123.87;;;114.67;;
2035;SDS011;23642;42.658;23.350;2023-02-15T07:53:19;126.27;;;115.47;;
2035;SDS011;23642;42.658;23.350;2023-02-15T07:55:46;122.63;;;113.37;;
2035;SDS011;23642;42.658;23.350;2023-02-15T07:58:14;117.50;;;108.97;;
2035;SDS011;23642;42.658;23.350;2023-02-15T08:00:41;123.00;;;113.90;;
2035;SDS011;23642;42.658;23.350;2023-02-15T08:03:23;123.47;;;114.17;;
2035;SDS011;23642;42.658;23.350;2023-02-15T08:05:54;123.27;;;113.93;;
2035;SDS011;23642;42.658;23.350;2023-02-15T08:08:23;124.17;;;114.17;;
2035;SDS011;23642;42.658;23.350;2023-02-15T08:10:59;123.70;;;114.00;;
2035;SDS011;23642;42.658;23.350;2023-02-15T08:13:46;121.73;;;112.10;;
2035;SDS011;23642;42.658;23.350;2023-02-15T08:16:21;124.40;;;115.47;;
2035;SDS011;23642;42.658;23.350;2023-02-15T08:18:49;122.10;;;113.10;;
2035;SDS011;23642;42.658;23.350;2023-02-15T08:21:18;124.63;;;115.10;;
2035;SDS011;23642;42.658;23.350;2023-02-15T08:23:45;128.13;;;118.00;;
2035;SDS011;23642;42.658;23.350;2023-02-15T08:26:12;125.03;;;115.73;;
2035;SDS011;23642;42.658;23.350;2023-02-15T08:28:40;122.73;;;113.53;;
2035;SDS011;23642;42.658;23.350;2023-02-15T08:31:16;121.73;;;112.73;;
2035;SDS011;23642;42.658;23.350;2023-02-15T08:33:44;121.57;;;112.63;;
2035;SDS011;23642;42.658;23.350;2023-02-15T08:36:12;125.53;;;116.43;;
2035;SDS011;23642;42.658;23.350;2023-02-15T08:38:44;124.53;;;115.60;;
2035;SDS011;23642;42.658;23.350;2023-02-15T08:41:18;124.43;;;115.47;;
2035;SDS011;23642;42.658;23.350;2023-02-15T08:43:47;122.20;;;113.73;;
2035;SDS011;23642;42.658;23.350;2023-02-15T08:46:17;122.53;;;113.83;;
2035;SDS011;23642;42.658;23.350;2023-02-15T08:48:44;119.17;;;110.80;;
2035;SDS011;23642;42.658;23.350;2023-02-15T08:51:12;123.47;;;114.47;;
2035;SDS011;23642;42.658;23.350;2023-02-15T08:53:46;120.07;;;111.17;;
2035;SDS011;23642;42.658;23.350;2023-02-15T08:56:15;120.00;;;110.93;;
2035;SDS011;23642;42.658;23.350;2023-02-15T08:58:53;122.67;;;113.73;;
2035;SDS011;23642;42.658;23.350;2023-02-15T09:01:22;124.57;;;115.73;;
2035;SDS011;23642;42.658;23.350;2023-02-15T09:03:55;126.17;;;117.20;;
2035;SDS011;23642;42.658;23.350;2023-02-15T09:06:22;118.60;;;109.87;;
2035;SDS011;23642;42.658;23.350;2023-02-15T09:08:50;120.00;;;111.40;;
2035;SDS011;23642;42.658;23.350;2023-02-15T09:11:18;128.83;;;119.30;;
2035;SDS011;23642;42.658;23.350;2023-02-15T09:13:51;122.73;;;114.03;;
2035;SDS011;23642;42.658;23.350;2023-02-15T09:16:19;125.87;;;116.87;;
2035;SDS011;23642;42.658;23.350;2023-02-15T09:18:49;117.17;;;108.53;;
2035;SDS011;23642;42.658;23.350;2023-02-15T09:21:17;123.13;;;114.00;;
2035;SDS011;23642;42.658;23.350;2023-02-15T09:23:50;126.90;;;117.70;;
2035;SDS011;23642;42.658;23.350;2023-02-15T09:26:22;122.07;;;113.27;;
2035;SDS011;23642;42.658;23.350;2023-02-15T09:29:02;123.27;;;114.40;;
2035;SDS011;23642;42.658;23.350;2023-02-15T09:32:08;118.53;;;109.93;;
2035;SDS011;23642;42.658;23.350;2023-02-15T09:34:39;123.40;;;114.63;;
2035;SDS011;23642;42.658;23.350;2023-02-15T09:37:06;121.93;;;113.20;;
2035;SDS011;23642;42.658;23.350;2023-02-15T09:39:39;122.20;;;112.67;;
2035;SDS011;23642;42.658;23.350;2023-02-15T09:42:16;113.50;;;105.47;;
2035;SDS011;23642;42.658;23.350;2023-02-15T09:45:20;120.63;;;111.63;;
2035;SDS011;23642;42.658;23.350;2023-02-15T09:48:06;120.10;;;111.47;;
2035;SDS011;23642;42.658;23.350;2023-02-15T09:51:10;119.97;;;111.33;;
2035;SDS011;23642;42.658;23.350;2023-02-15T09:54:02;117.87;;;109.23;;
2035;SDS011;23642;42.658;23.350;2023-02-15T09:56:49;119.10;;;109.67;;
2035;SDS011;23642;42.658;23.350;2023-02-15T09:59:27;120.83;;;111.70;;
2035;SDS011;23642;42.658;23.350;2023-02-15T10:05:27;126.40;;;117.27;;
2035;SDS011;23642;42.658;23.350;2023-02-15T10:08:18;119.43;;;110.83;;
2035;SDS011;23642;42.658;23.350;2023-02-15T10:11:02;118.87;;;110.00;;
2035;SDS011;23642;42.658;23.350;2023-02-15T10:14:03;124.30;;;115.10;;
2035;SDS011;23642;42.658;23.350;2023-02-15T10:17:13;122.20;;;113.60;;
2035;SDS011;23642;42.658;23.350;2023-02-15T10:19:54;118.40;;;109.50;;
2035;SDS011;23642;42.658;23.350;2023-02-15T10:22:47;116.70;;;108.20;;
2035;SDS011;23642;42.658;23.350;2023-02-15T10:25:28;119.90;;;110.97;;
2035;SDS011;23642;42.658;23.350;2023-02-15T10:28:35;124.50;;;115.30;;
2035;SDS011;23642;42.658;23.350;2023-02-15T10:31:26;124.80;;;115.47;;
2035;SDS011;23642;42.658;23.350;2023-02-15T10:34:08;119.90;;;110.70;;
2035;SDS011;23642;42.658;23.350;2023-02-15T10:37:05;120.10;;;111.10;;
2035;SDS011;23642;42.658;23.350;2023-02-15T10:39:55;116.70;;;107.87;;
2035;SDS011;23642;42.658;23.350;2023-02-15T10:42:47;117.73;;;109.17;;
2035;SDS011;23642;42.658;23.350;2023-02-15T10:45:31;121.20;;;112.30;;
2035;SDS011;23642;42.658;23.350;2023-02-15T10:50:59;117.50;;;108.70;;
2035;SDS011;23642;42.658;23.350;2023-02-15T10:53:33;116.73;;;107.97;;
2035;SDS011;23642;42.658;23.350;2023-02-15T10:56:25;120.50;;;111.80;;
2035;SDS011;23642;42.658;23.350;2023-02-15T10:59:14;124.10;;;115.07;;
2035;SDS011;23642;42.658;23.350;2023-02-15T11:01:52;121.47;;;112.33;;
2035;SDS011;23642;42.658;23.350;2023-02-15T11:07:16;118.30;;;109.50;;
2035;SDS011;23642;42.658;23.350;2023-02-15T11:09:49;122.53;;;113.53;;
2035;SDS011;23642;42.658;23.350;2023-02-15T11:12:24;119.43;;;110.67;;
2035;SDS011;23642;42.658;23.350;2023-02-15T11:14:55;123.87;;;115.10;;
2035;SDS011;23642;42.658;23.350;2023-02-15T11:17:28;113.57;;;105.37;;
2035;SDS011;23642;42.658;23.350;2023-02-15T11:20:07;118.60;;;109.70;;
2035;SDS011;23642;42.658;23.350;2023-02-15T11:22:43;119.83;;;110.87;;
2035;SDS011;23642;42.658;23.350;2023-02-15T11:25:19;114.37;;;105.67;;
2035;SDS011;23642;42.658;23.350;2023-02-15T11:27:51;121.53;;;112.47;;
2035;SDS011;23642;42.658;23.350;2023-02-15T11:30:22;120.17;;;111.30;;
2035;SDS011;23642;42.658;23.350;2023-02-15T11:32:51;116.40;;;107.80;;
2035;SDS011;23642;42.658;23.350;2023-02-15T11:35:24;120.50;;;110.90;;
2035;SDS011;23642;42.658;23.350;2023-02-15T11:38:06;118.13;;;109.43;;
2035;SDS011;23642;42.658;23.350;2023-02-15T11:40:40;120.97;;;112.03;;
2035;SDS011;23642;42.658;23.350;2023-02-15T11:43:15;120.17;;;110.67;;
2035;SDS011;23642;42.658;23.350;2023-02-15T11:45:46;124.20;;;115.10;;
2035;SDS011;23642;42.658;23.350;2023-02-15T11:48:14;115.20;;;106.60;;
2035;SDS011;23642;42.658;23.350;2023-02-15T11:50:43;118.67;;;109.83;;
2035;SDS011;23642;42.658;23.350;2023-02-15T11:53:11;118.30;;;109.57;;
2035;SDS011;23642;42.658;23.350;2023-02-15T11:55:39;121.07;;;112.13;;
2035;SDS011;23642;42.658;23.350;2023-02-15T11:58:11;122.50;;;113.40;;
2035;SDS011;23642;42.658;23.350;2023-02-15T12:00:50;123.83;;;113.93;;
2035;SDS011;23642;42.658;23.350;2023-02-15T12:03:21;119.43;;;110.23;;
2035;SDS011;23642;42.658;23.350;2023-02-15T12:05:53;121.50;;;111.83;;
2035;SDS011;23642;42.658;23.350;2023-02-15T12:08:28;119.27;;;110.20;;
2035;SDS011;23642;42.658;23.350;2023-02-15T12:11:09;122.70;;;113.60;;
2035;SDS011;23642;42.658;23.350;2023-02-15T12:13:54;123.95;;;114.57;;
2035;SDS011;23642;42.658;23.350;2023-02-15T12:16:23;121.20;;;111.90;;
2035;SDS011;23642;42.658;23.350;2023-02-15T12:18:50;122.10;;;112.70;;
2035;SDS011;23642;42.658;23.350;2023-02-15T12:21:24;118.87;;;109.67;;
2035;SDS011;23642;42.658;23.350;2023-02-15T12:23:55;121.13;;;112.30;;
2035;SDS011;23642;42.658;23.350;2023-02-15T12:26:24;125.87;;;116.77;;
2035;SDS011;23642;42.658;23.350;2023-02-15T12:28:53;126.03;;;116.73;;
2035;SDS011;23642;42.658;23.350;2023-02-15T12:31:27;117.37;;;108.40;;
2035;SDS011;23642;42.658;23.350;2023-02-15T12:33:57;118.37;;;109.37;;
2035;SDS011;23642;42.658;23.350;2023-02-15T12:36:29;119.20;;;110.33;;
2035;SDS011;23642;42.658;23.350;2023-02-15T12:39:16;123.10;;;114.20;;
2035;SDS011;23642;42.658;23.350;2023-02-15T12:41:46;125.00;;;115.97;;
2035;SDS011;23642;42.658;23.350;2023-02-15T12:44:28;118.23;;;109.17;;
2035;SDS011;23642;42.658;23.350;2023-02-15T12:46:57;119.33;;;110.10;;
2035;SDS011;23642;42.658;23.350;2023-02-15T12:49:25;120.03;;;110.90;;
2035;SDS011;23642;42.658;23.350;2023-02-15T12:51:54;120.07;;;111.03;;
2035;SDS011;23642;42.658;23.350;2023-02-15T12:54:28;122.07;;;113.10;;
2035;SDS011;23642;42.658;23.350;2023-02-15T12:57:12;122.73;;;113.23;;
2035;SDS011;23642;42.658;23.350;2023-02-15T12:59:56;121.77;;;112.37;;
2035;SDS011;23642;42.658;23.350;2023-02-15T13:02:29;122.47;;;113.13;;
2035;SDS011;23642;42.658;23.350;2023-02-15T13:05:04;122.67;;;113.57;;
2035;SDS011;23642;42.658;23.350;2023-02-15T13:07:44;120.80;;;111.80;;
2035;SDS011;23642;42.658;23.350;2023-02-15T13:10:18;121.97;;;112.57;;
2035;SDS011;23642;42.658;23.350;2023-02-15T13:12:50;119.60;;;110.70;;
2035;SDS011;23642;42.658;23.350;2023-02-15T13:15:28;118.70;;;109.40;;
2035;SDS011;23642;42.658;23.350;2023-02-15T13:17:59;119.23;;;110.07;;
2035;SDS011;23642;42.658;23.350;2023-02-15T13:20:27;117.73;;;108.80;;
2035;SDS011;23642;42.658;23.350;2023-02-15T13:22:57;122.67;;;113.60;;
2035;SDS011;23642;42.658;23.350;2023-02-15T13:25:30;124.28;;;115.18;;
2035;SDS011;23642;42.658;23.350;2023-02-15T13:28:01;116.80;;;108.00;;
2035;SDS011;23642;42.658;23.350;2023-02-15T13:30:31;120.90;;;111.67;;
2035;SDS011;23642;42.658;23.350;2023-02-15T13:33:02;119.20;;;110.10;;
2035;SDS011;23642;42.658;23.350;2023-02-15T13:35:34;121.80;;;112.00;;
2035;SDS011;23642;42.658;23.350;2023-02-15T13:41:09;121.20;;;112.20;;
2035;SDS011;23642;42.658;23.350;2023-02-15T13:43:45;119.50;;;110.70;;
2035;SDS011;23642;42.658;23.350;2023-02-15T13:46:27;117.27;;;108.47;;
2035;SDS011;23642;42.658;23.350;2023-02-15T13:49:10;119.37;;;110.37;;
2035;SDS011;23642;42.658;23.350;2023-02-15T13:51:45;119.13;;;109.97;;
2035;SDS011;23642;42.658;23.350;2023-02-15T13:54:33;121.60;;;112.70;;
2035;SDS011;23642;42.658;23.350;2023-02-15T13:57:24;122.50;;;113.70;;
2035;SDS011;23642;42.658;23.350;2023-02-15T14:00:14;121.77;;;112.17;;
2035;SDS011;23642;42.658;23.350;2023-02-15T14:03:02;122.17;;;112.87;;
2035;SDS011;23642;42.658;23.350;2023-02-15T14:05:46;118.57;;;109.67;;
2035;SDS011;23642;42.658;23.350;2023-02-15T14:08:22;123.90;;;114.90;;
2035;SDS011;23642;42.658;23.350;2023-02-15T14:11:06;123.80;;;114.50;;
2035;SDS011;23642;42.658;23.350;2023-02-15T14:13:45;125.15;;;115.55;;
2035;SDS011;23642;42.658;23.350;2023-02-15T14:16:33;117.37;;;108.63;;
2035;SDS011;23642;42.658;23.350;2023-02-15T14:19:25;123.73;;;114.03;;
2035;SDS011;23642;42.658;23.350;2023-02-15T14:22:04;124.57;;;115.37;;
2035;SDS011;23642;42.658;23.350;2023-02-15T14:24:40;117.37;;;108.03;;
2035;SDS011;23642;42.658;23.350;2023-02-15T14:27:15;118.07;;;109.10;;
2035;SDS011;23642;42.658;23.350;2023-02-15T14:29:51;121.70;;;112.50;;
2035;SDS011;23642;42.658;23.350;2023-02-15T14:32:23;121.50;;;112.13;;
2035;SDS011;23642;42.658;23.350;2023-02-15T14:34:57;117.97;;;108.80;;
2035;SDS011;23642;42.658;23.350;2023-02-15T14:37:29;116.60;;;107.70;;
2035;SDS011;23642;42.658;23.350;2023-02-15T14:40:07;114.27;;;105.40;;
2035;SDS011;23642;42.658;23.350;2023-02-15T14:43:01;118.37;;;109.07;;
2035;SDS011;23642;42.658;23.350;2023-02-15T14:45:39;116.57;;;107.70;;